Time;durP1;ratioP1;P1;durP2;ratioP2;P2;SDS_P1;SDS_P2;PMS_P1;PMS_P2;Temp;Humidity;BMP_temperature;BMP_pressure;BME280_temperature;BME280_humidity;BME280_pressure;Samples;Min_cycle;Max_cycle;Signal;HPM_P1;HPM_P2
2024/01/26 00:01:32;;;;;;;38.80;23.95;;;;;;;8.87;100.00;102040.38;5135893;28;20393;-75
2024/01/26 00:03:57;;;;;;;33.20;19.33;;;;;;;8.87;100.00;102039.53;5135981;28;20038;-74
2024/01/26 00:06:24;;;;;;;34.30;22.42;;;;;;;8.88;100.00;102033.19;5135836;28;20489;-76
2024/01/26 00:08:49;;;;;;;33.70;23.02;;;;;;;8.86;100.00;102038.72;5117389;28;20027;-74
2024/01/26 00:11:15;;;;;;;35.47;20.48;;;;;;;8.89;100.00;102035.69;5117514;28;20372;-73
2024/01/26 00:13:41;;;;;;;28.58;15.95;;;;;;;8.90;100.00;102039.19;5117164;28;20034;-75
2024/01/26 00:16:06;;;;;;;30.40;18.75;;;;;;;8.88;100.00;102031.38;5117351;28;20023;-75
2024/01/26 00:18:32;;;;;;;30.85;17.52;;;;;;;8.87;100.00;102023.53;5117208;28;20511;-75
2024/01/26 00:20:58;;;;;;;28.08;17.63;;;;;;;8.89;100.00;102033.03;5117415;28;20023;-75
2024/01/26 00:23:23;;;;;;;30.48;18.92;;;;;;;8.84;100.00;102030.06;5117212;28;20041;-75
2024/01/26 00:25:48;;;;;;;31.65;18.70;;;;;;;8.89;100.00;102025.03;5117165;28;20019;-75
2024/01/26 00:28:14;;;;;;;30.38;22.67;;;;;;;8.91;100.00;102025.69;5117108;28;20031;-76
2024/01/26 00:30:39;;;;;;;26.02;17.77;;;;;;;8.93;100.00;102025.50;5117086;28;20015;-76
2024/01/26 00:33:04;;;;;;;27.60;19.17;;;;;;;8.98;100.00;102031.19;5135438;28;20035;-75
2024/01/26 00:35:30;;;;;;;36.92;19.55;;;;;;;8.91;100.00;102035.53;5117024;28;20027;-76
2024/01/26 00:37:55;;;;;;;25.80;16.88;;;;;;;8.90;100.00;102026.69;5135372;28;20027;-75
2024/01/26 00:40:21;;;;;;;28.35;17.17;;;;;;;8.97;100.00;102027.69;5116894;28;20023;-76
2024/01/26 00:42:46;;;;;;;24.15;17.05;;;;;;;8.93;100.00;102031.66;5116978;28;20027;-75
2024/01/26 00:45:12;;;;;;;29.80;16.83;;;;;;;8.88;100.00;102025.19;5117095;28;20023;-74
2024/01/26 00:47:37;;;;;;;27.42;15.88;;;;;;;8.89;100.00;102026.88;5116749;28;20080;-74
2024/01/26 00:50:04;;;;;;;21.52;15.88;;;;;;;8.89;100.00;102011.69;5135336;28;20104;-75
2024/01/26 00:52:29;;;;;;;25.27;15.30;;;;;;;8.93;100.00;102017.50;5135134;28;20391;-75
2024/01/26 00:54:54;;;;;;;23.40;16.98;;;;;;;8.95;100.00;102012.81;5135142;28;20031;-75
2024/01/26 00:57:20;;;;;;;21.33;16.10;;;;;;;8.96;100.00;102018.00;5116709;28;20023;-75
2024/01/26 00:59:45;;;;;;;21.63;14.90;;;;;;;9.02;100.00;102023.66;5135004;28;20481;-74
2024/01/26 01:02:11;;;;;;;20.20;14.05;;;;;;;8.99;100.00;102015.00;5116711;28;20027;-75
2024/01/26 01:04:36;;;;;;;22.77;14.60;;;;;;;9.06;100.00;102032.97;5134567;27;20364;-75
2024/01/26 01:07:03;;;;;;;19.27;14.07;;;;;;;9.06;100.00;102016.97;5134873;28;20022;-75
2024/01/26 01:09:28;;;;;;;19.45;12.98;;;;;;;9.05;100.00;102026.81;5116435;28;20027;-74
2024/01/26 01:11:54;;;;;;;19.02;12.95;;;;;;;9.05;100.00;102023.31;5116485;28;20025;-74
2024/01/26 01:14:19;;;;;;;16.08;11.43;;;;;;;9.11;100.00;102022.59;5134893;28;20512;-75
2024/01/26 01:16:45;;;;;;;19.25;12.48;;;;;;;9.11;100.00;102027.94;5134788;28;20034;-74
2024/01/26 01:19:11;;;;;;;13.23;10.20;;;;;;;9.12;100.00;102016.25;5116362;28;20152;-75
2024/01/26 01:21:36;;;;;;;19.25;13.07;;;;;;;9.11;100.00;102019.94;5134819;28;20502;-75
2024/01/26 01:24:01;;;;;;;16.00;11.10;;;;;;;9.09;100.00;102017.44;5134648;28;20035;-75
2024/01/26 01:26:27;;;;;;;14.82;10.95;;;;;;;9.09;100.00;102013.94;5116231;28;20398;-76
2024/01/26 01:28:53;;;;;;;13.18;10.20;;;;;;;9.08;100.00;102002.44;5134584;28;20023;-76
2024/01/26 01:31:19;;;;;;;12.98;9.90;;;;;;;9.09;100.00;102005.94;5134442;28;20051;-76
2024/01/26 01:33:44;;;;;;;13.10;11.10;;;;;;;9.07;100.00;102005.28;5134414;28;20357;-75
2024/01/26 01:36:10;;;;;;;13.98;11.15;;;;;;;9.07;100.00;102005.28;5134539;28;20031;-75
2024/01/26 01:38:35;;;;;;;13.15;11.32;;;;;;;9.05;100.00;102008.13;5116081;28;20083;-75
2024/01/26 01:41:02;;;;;;;15.63;10.40;;;;;;;9.05;100.00;102001.97;5115842;28;20023;-75
2024/01/26 01:43:28;;;;;;;14.60;10.18;;;;;;;9.10;100.00;101994.25;5134272;28;20051;-75
2024/01/26 01:45:53;;;;;;;12.50;10.13;;;;;;;9.12;100.00;101990.41;5134253;28;20062;-75
2024/01/26 01:48:20;;;;;;;13.63;10.95;;;;;;;9.09;100.00;101993.44;5134345;28;20479;-75
2024/01/26 01:50:46;;;;;;;12.85;9.32;;;;;;;9.12;100.00;101990.41;5115696;28;20539;-77
2024/01/26 01:53:12;;;;;;;9.98;8.43;;;;;;;9.15;100.00;101989.22;5134069;28;20106;-76
2024/01/26 01:55:40;;;;;;;11.02;8.88;;;;;;;9.15;100.00;101994.56;5115719;28;20031;-76
2024/01/26 01:58:06;;;;;;;12.45;9.18;;;;;;;9.19;100.00;101990.53;5133982;28;20034;-75
2024/01/26 02:00:32;;;;;;;10.88;8.80;;;;;;;9.15;100.00;101991.88;5115566;28;20019;-76
2024/01/26 02:02:58;;;;;;;13.30;8.70;;;;;;;9.11;100.00;101977.25;5134055;28;20096;-75
2024/01/26 02:05:23;;;;;;;10.57;9.00;;;;;;;9.06;100.00;101972.44;5115472;28;20083;-75
2024/01/26 02:07:49;;;;;;;11.95;9.57;;;;;;;9.16;100.00;101985.53;5115763;28;20035;-76
2024/01/26 02:10:15;;;;;;;11.35;7.15;;;;;;;9.18;100.00;101981.69;5133931;28;20038;-74
2024/01/26 02:12:40;;;;;;;11.27;8.23;;;;;;;9.14;100.00;101977.72;5133903;28;20023;-76
2024/01/26 02:15:08;;;;;;;9.50;7.95;;;;;;;9.13;100.00;101964.53;5133858;28;20044;-75
2024/01/26 02:17:35;;;;;;;9.68;8.35;;;;;;;9.18;100.00;101967.50;5114463;28;20096;-76
2024/01/26 02:20:03;;;;;;;9.30;6.93;;;;;;;9.19;100.00;101953.16;5133701;27;20515;-75
2024/01/26 02:22:29;;;;;;;9.02;7.53;;;;;;;9.16;100.00;101967.69;5115306;28;20027;-75
2024/01/26 02:24:54;;;;;;;9.63;7.15;;;;;;;9.21;100.00;101969.81;5133834;28;20031;-75
2024/01/26 02:27:19;;;;;;;9.50;7.10;;;;;;;9.16;100.00;101959.69;5133515;28;20055;-76
2024/01/26 02:29:45;;;;;;;10.35;7.72;;;;;;;9.21;100.00;101948.47;5133474;28;20027;-75
2024/01/26 02:32:10;;;;;;;7.63;6.45;;;;;;;9.23;100.00;101954.47;5114994;28;20023;-76
2024/01/26 02:34:36;;;;;;;9.93;6.57;;;;;;;9.21;100.00;101956.47;5115128;28;20051;-73
2024/01/26 02:37:02;;;;;;;9.68;6.82;;;;;;;9.20;100.00;101949.47;5114919;28;20504;-74
2024/01/26 02:39:28;;;;;;;9.63;6.85;;;;;;;9.22;100.00;101942.13;5114789;28;20391;-74
2024/01/26 02:41:54;;;;;;;8.90;7.43;;;;;;;9.23;100.00;101935.78;5114745;28;20159;-74
2024/01/26 02:44:19;;;;;;;8.95;6.40;;;;;;;9.22;100.00;101942.13;5114747;28;20080;-74
2024/01/26 02:46:46;;;;;;;9.15;5.97;;;;;;;9.18;100.00;101924.81;5133227;28;20309;-74
2024/01/26 02:49:12;;;;;;;7.35;6.20;;;;;;;9.18;100.00;101935.50;5133228;28;20046;-74
2024/01/26 02:51:37;;;;;;;10.18;6.50;;;;;;;9.20;100.00;101928.13;5114630;28;20804;-74
2024/01/26 02:54:03;;;;;;;6.35;5.60;;;;;;;9.22;100.00;101921.59;5114537;28;20042;-75
2024/01/26 02:56:28;;;;;;;8.65;6.13;;;;;;;9.24;100.00;101924.09;5114752;28;20023;-74
2024/01/26 02:58:53;;;;;;;9.13;5.78;;;;;;;9.26;100.00;101922.09;5133012;28;20379;-75
2024/01/26 03:01:19;;;;;;;8.15;6.60;;;;;;;9.27;100.00;101910.44;5114594;28;20077;-74
2024/01/26 03:03:44;;;;;;;8.38;6.90;;;;;;;9.29;100.00;101911.91;5114433;28;20050;-73
2024/01/26 03:06:11;;;;;;;10.27;5.63;;;;;;;9.36;100.00;101906.66;5132856;28;20031;-73
2024/01/26 03:08:37;;;;;;;8.48;5.68;;;;;;;9.31;100.00;101903.72;5114339;28;20075;-74
2024/01/26 03:11:03;;;;;;;7.32;5.82;;;;;;;9.35;100.00;101907.69;5132781;28;20102;-74
2024/01/26 03:13:29;;;;;;;8.55;7.20;;;;;;;9.35;100.00;101915.69;5114237;28;20026;-74
2024/01/26 03:15:55;;;;;;;7.68;6.07;;;;;;;9.37;100.00;101911.00;5114138;28;20031;-74
2024/01/26 03:18:21;;;;;;;7.05;6.28;;;;;;;9.37;100.00;101903.00;5132480;27;20019;-73
2024/01/26 03:20:47;;;;;;;8.40;6.57;;;;;;;9.34;100.00;101881.16;5132542;28;20055;-73
2024/01/26 03:23:12;;;;;;;7.38;6.68;;;;;;;9.32;100.00;101876.00;5114131;28;20061;-74
2024/01/26 03:25:38;;;;;;;8.60;6.47;;;;;;;9.42;100.00;101871.25;5132985;28;20038;-74
2024/01/26 03:28:04;;;;;;;8.27;6.85;;;;;;;9.39;100.00;101870.78;5114617;28;20493;-73
2024/01/26 03:30:30;;;;;;;7.82;6.55;;;;;;;9.41;100.00;101866.09;5132974;28;20023;-73
2024/01/26 03:32:55;;;;;;;7.82;6.70;;;;;;;9.40;100.00;101867.94;5133081;28;20075;-72
2024/01/26 03:35:20;;;;;;;7.57;5.88;;;;;;;9.42;100.00;101860.56;5132800;28;20463;-72
2024/01/26 03:37:46;;;;;;;6.28;5.55;;;;;;;9.46;100.00;101866.38;5114484;28;20043;-73
2024/01/26 03:40:11;;;;;;;7.10;5.85;;;;;;;9.44;100.00;101860.38;5132863;28;20023;-73
2024/01/26 03:42:37;;;;;;;8.10;6.22;;;;;;;9.46;100.00;101858.34;5132722;28;20544;-73
2024/01/26 03:45:04;;;;;;;9.65;6.43;;;;;;;9.41;100.00;101850.06;5132763;28;20444;-73
2024/01/26 03:47:29;;;;;;;7.43;5.97;;;;;;;9.46;100.00;101855.69;5132596;28;20035;-73
2024/01/26 03:49:54;;;;;;;8.23;5.72;;;;;;;9.45;100.00;101848.69;5132625;28;20080;-73
2024/01/26 03:52:20;;;;;;;6.57;5.82;;;;;;;9.50;100.00;101854.31;5114063;28;20027;-73
2024/01/26 03:54:45;;;;;;;9.23;7.68;;;;;;;9.49;100.00;101832.13;5114023;28;20054;-72
2024/01/26 03:57:11;;;;;;;7.78;6.03;;;;;;;9.50;100.00;101844.47;5132526;28;20375;-72
2024/01/26 03:59:36;;;;;;;7.07;6.38;;;;;;;9.51;100.00;101829.25;5132219;28;20542;-73
2024/01/26 04:02:01;;;;;;;8.20;6.85;;;;;;;9.58;100.00;101823.03;5132522;28;20031;-73
2024/01/26 04:04:27;;;;;;;10.88;5.88;;;;;;;9.53;100.00;101822.72;5132310;28;20399;-73
2024/01/26 04:06:52;;;;;;;9.52;6.72;;;;;;;9.56;100.00;101817.06;5132130;28;20106;-72
2024/01/26 04:09:17;;;;;;;10.52;6.95;;;;;;;9.54;100.00;101829.75;5113847;28;20498;-73
2024/01/26 04:11:43;;;;;;;10.00;7.53;;;;;;;9.55;100.00;101833.25;5132283;28;20050;-73
2024/01/26 04:14:08;;;;;;;9.27;7.30;;;;;;;9.56;100.00;101816.22;5113610;28;20031;-73
2024/01/26 04:16:34;;;;;;;12.13;7.65;;;;;;;9.66;100.00;101818.63;5113853;28;20114;-72
2024/01/26 04:18:59;;;;;;;10.85;7.40;;;;;;;9.61;100.00;101776.44;5113480;28;20027;-74
2024/01/26 04:21:24;;;;;;;10.57;7.55;;;;;;;9.63;100.00;101793.94;5113673;28;20030;-73
2024/01/26 04:23:50;;;;;;;9.80;7.53;;;;;;;9.68;100.00;101790.72;5131903;28;20031;-75
2024/01/26 04:26:17;;;;;;;9.82;7.82;;;;;;;9.63;100.00;101774.41;5113906;28;20122;-75
2024/01/26 04:28:42;;;;;;;9.82;7.72;;;;;;;9.68;100.00;101772.00;5132213;28;20054;-74
2024/01/26 04:31:07;;;;;;;12.70;9.00;;;;;;;9.57;100.00;101770.66;5132086;28;20035;-72
2024/01/26 04:33:33;;;;;;;9.63;8.63;;;;;;;9.64;100.00;101754.72;5132053;28;20059;-72
2024/01/26 04:35:59;;;;;;;10.35;9.18;;;;;;;9.63;100.00;101761.91;5132272;28;20070;-72
2024/01/26 04:38:24;;;;;;;11.15;9.80;;;;;;;9.69;100.00;101771.00;5113205;28;20071;-72
2024/01/26 04:40:49;;;;;;;13.13;9.32;;;;;;;9.67;100.00;101769.53;5133810;27;20039;-74
2024/01/26 04:43:15;;;;;;;11.32;8.73;;;;;;;9.62;100.00;101746.06;5116908;28;20042;-73
2024/01/26 04:45:40;;;;;;;11.20;8.95;;;;;;;9.62;100.00;101756.75;5116593;28;20032;-72
2024/01/26 04:48:07;;;;;;;11.20;8.60;;;;;;;9.62;100.00;101757.56;5134997;28;20027;-73
2024/01/26 04:50:32;;;;;;;12.18;8.55;;;;;;;9.64;100.00;101760.06;5135460;28;20042;-73
2024/01/26 04:52:58;;;;;;;10.65;9.07;;;;;;;9.65;100.00;101772.38;5116826;28;20023;-74
2024/01/26 04:55:26;;;;;;;12.27;8.82;;;;;;;9.64;100.00;101770.72;5116930;28;20178;-73
2024/01/26 04:57:51;;;;;;;10.52;9.43;;;;;;;9.55;100.00;101758.50;5116546;28;20023;-73
2024/01/26 05:00:19;;;;;;;9.50;7.45;;;;;;;9.58;100.00;101756.28;5116686;28;20058;-74
2024/01/26 05:02:45;;;;;;;11.10;8.35;;;;;;;9.57;100.00;101756.47;5116729;28;20359;-73
2024/01/26 05:05:14;;;;;;;13.02;8.15;;;;;;;9.57;100.00;101759.97;5134922;28;20157;-74
2024/01/26 05:07:39;;;;;;;10.57;8.23;;;;;;;9.54;100.00;101755.00;5135102;28;20436;-75
2024/01/26 05:10:06;;;;;;;13.45;10.27;;;;;;;9.60;100.00;101742.75;5135048;28;20115;-75
2024/01/26 05:12:31;;;;;;;14.30;10.65;;;;;;;9.55;100.00;101748.66;5116650;28;20160;-73
2024/01/26 05:14:57;;;;;;;12.15;8.82;;;;;;;9.61;100.00;101757.75;5135231;28;20063;-73
2024/01/26 05:17:22;;;;;;;11.50;9.77;;;;;;;9.60;100.00;101748.09;5135001;28;20031;-74
2024/01/26 05:19:48;;;;;;;10.05;8.35;;;;;;;9.59;100.00;101727.75;5116476;28;20031;-74
2024/01/26 05:22:13;;;;;;;14.25;8.68;;;;;;;9.51;100.00;101717.97;5134993;28;20027;-75
2024/01/26 05:24:39;;;;;;;16.88;10.55;;;;;;;9.52;100.00;101713.44;5116606;28;20115;-73
2024/01/26 05:27:04;;;;;;;10.82;9.25;;;;;;;9.43;100.00;101720.75;5134857;28;20472;-74
2024/01/26 05:29:30;;;;;;;13.27;10.77;;;;;;;9.30;100.00;101717.91;5134783;28;20356;-72
2024/01/26 05:31:55;;;;;;;12.30;11.00;;;;;;;9.20;100.00;101694.13;5134554;28;20035;-76
2024/01/26 05:34:21;;;;;;;13.73;12.32;;;;;;;9.11;100.00;101675.75;5116186;28;20023;-76
2024/01/26 05:36:46;;;;;;;13.63;8.57;;;;;;;9.07;100.00;101699.31;5134821;28;20594;-74
2024/01/26 05:39:12;;;;;;;19.20;11.20;;;;;;;8.96;100.00;101691.72;5134836;28;20027;-73
2024/01/26 05:41:37;;;;;;;16.50;11.90;;;;;;;8.92;100.00;101659.25;5134687;28;20106;-74
2024/01/26 05:44:03;;;;;;;10.32;8.60;;;;;;;8.95;100.00;101653.56;5134846;28;20037;-74
2024/01/26 05:46:28;;;;;;;14.02;9.93;;;;;;;8.95;100.00;101669.56;5116084;28;20459;-76
2024/01/26 05:48:56;;;;;;;14.95;11.23;;;;;;;8.87;100.00;101660.81;5134467;28;20031;-75
2024/01/26 05:51:21;;;;;;;15.23;9.65;;;;;;;8.88;100.00;101657.97;5115932;28;20096;-76
2024/01/26 05:53:47;;;;;;;17.05;12.07;;;;;;;8.87;100.00;101669.66;5134555;28;20459;-75
2024/01/26 05:56:12;;;;;;;14.55;11.45;;;;;;;8.88;100.00;101638.47;5115959;28;20032;-75
2024/01/26 05:58:39;;;;;;;16.10;13.85;;;;;;;8.85;100.00;101666.34;5134386;28;20053;-76
2024/01/26 06:01:04;;;;;;;14.02;9.88;;;;;;;8.84;100.00;101651.34;5134531;28;20030;-77
2024/01/26 06:03:29;;;;;;;16.58;10.98;;;;;;;8.81;100.00;101641.06;5134310;28;20023;-74
2024/01/26 06:05:55;;;;;;;19.55;13.73;;;;;;;8.77;100.00;101652.28;5115669;28;20039;-74
2024/01/26 06:08:20;;;;;;;19.88;12.60;;;;;;;8.75;100.00;101630.28;5134282;28;20019;-73
2024/01/26 06:10:46;;;;;;;21.27;14.70;;;;;;;8.77;100.00;101620.28;5134137;28;20387;-75
2024/01/26 06:13:11;;;;;;;17.73;12.82;;;;;;;8.69;100.00;101614.03;5134036;28;20027;-75
2024/01/26 06:15:37;;;;;;;18.92;12.43;;;;;;;8.74;100.00;101618.81;5134176;28;20380;-74
2024/01/26 06:18:02;;;;;;;20.85;14.30;;;;;;;8.79;100.00;101603.06;5115493;27;20027;-74
2024/01/26 06:20:33;;;;;;;19.23;12.43;;;;;;;8.82;100.00;101629.38;5115501;28;20034;-75
2024/01/26 06:22:59;;;;;;;21.55;16.50;;;;;;;8.80;100.00;101633.25;5134170;28;20531;-76
2024/01/26 06:25:25;;;;;;;27.52;16.40;;;;;;;8.83;100.00;101592.88;5115359;28;20023;-75
2024/01/26 06:27:50;;;;;;;17.52;11.30;;;;;;;8.77;100.00;101605.09;5134026;28;20031;-76
2024/01/26 06:30:16;;;;;;;23.25;16.27;;;;;;;8.83;100.00;101617.69;5133979;28;20482;-74
2024/01/26 06:32:42;;;;;;;22.63;17.50;;;;;;;8.80;100.00;101602.06;5115195;28;20378;-74
2024/01/26 06:35:09;;;;;;;20.42;14.45;;;;;;;8.89;100.00;101600.13;5115468;28;20118;-73
2024/01/26 06:37:34;;;;;;;25.90;14.40;;;;;;;8.86;100.00;101611.16;5115206;28;20026;-74
2024/01/26 06:39:59;;;;;;;20.52;12.50;;;;;;;8.94;100.00;101613.72;5133431;28;20379;-74
2024/01/26 06:42:25;;;;;;;21.25;13.75;;;;;;;8.87;100.00;101610.97;5133663;28;20690;-75
2024/01/26 06:44:54;;;;;;;20.60;12.02;;;;;;;8.88;100.00;101612.63;5133385;28;20034;-76
2024/01/26 06:47:20;;;;;;;23.67;13.55;;;;;;;8.94;100.00;101621.72;5114777;28;20023;-75
2024/01/26 06:49:45;;;;;;;24.10;14.73;;;;;;;8.93;100.00;101604.91;5133222;28;20024;-77
2024/01/26 06:52:11;;;;;;;22.58;16.15;;;;;;;8.97;100.00;101608.06;5133329;28;20026;-76
2024/01/26 06:54:39;;;;;;;20.85;11.50;;;;;;;8.93;100.00;101594.22;5133231;28;20106;-75
2024/01/26 06:57:05;;;;;;;21.45;16.20;;;;;;;8.95;100.00;101583.38;5133112;28;20030;-76
2024/01/26 06:59:32;;;;;;;23.60;18.77;;;;;;;9.00;100.00;101591.69;5133182;28;20035;-77
2024/01/26 07:01:58;;;;;;;25.33;14.82;;;;;;;8.97;100.00;101578.72;5114509;28;20030;-75
2024/01/26 07:04:23;;;;;;;23.85;14.50;;;;;;;9.07;100.00;101591.75;5114003;28;20035;-75
2024/01/26 07:06:48;;;;;;;22.63;13.60;;;;;;;8.94;100.00;101577.22;5133059;28;20027;-76
2024/01/26 07:09:13;;;;;;;23.98;14.85;;;;;;;9.07;100.00;101587.25;5132975;28;20031;-75
2024/01/26 07:11:40;;;;;;;23.08;14.05;;;;;;;9.06;100.00;101584.78;5132855;28;20026;-76
2024/01/26 07:14:05;;;;;;;24.48;15.98;;;;;;;9.09;100.00;101592.41;5097376;28;20031;-75
2024/01/26 07:16:30;;;;;;;25.25;16.00;;;;;;;9.06;100.00;101577.59;5132616;28;20025;-75
2024/01/26 07:18:56;;;;;;;22.35;16.17;;;;;;;9.08;100.00;101577.41;5114265;28;20475;-74
2024/01/26 07:21:22;;;;;;;22.30;14.48;;;;;;;9.11;100.00;101574.38;5132579;28;20123;-76
2024/01/26 07:23:49;;;;;;;18.50;12.75;;;;;;;9.10;100.00;101565.53;5132788;28;20372;-77
2024/01/26 07:26:21;;;;;;;25.33;13.55;;;;;;;9.13;100.00;101557.16;5132499;28;20027;-75
2024/01/26 07:28:47;;;;;;;20.70;13.50;;;;;;;9.22;100.00;101568.53;5132589;28;20564;-76
2024/01/26 07:31:13;;;;;;;19.48;13.45;;;;;;;9.26;100.00;101569.84;5132541;28;20023;-76
2024/01/26 07:33:38;;;;;;;20.50;14.13;;;;;;;9.23;100.00;101556.84;5132341;28;20475;-75
2024/01/26 07:36:04;;;;;;;18.65;14.27;;;;;;;9.28;100.00;101557.13;5114047;28;20555;-75
2024/01/26 07:38:29;;;;;;;18.05;14.30;;;;;;;9.28;100.00;101531.28;5113945;28;20372;-75
2024/01/26 07:40:55;;;;;;;14.25;9.70;;;;;;;9.35;100.00;101550.03;5132406;28;20102;-76
2024/01/26 07:43:20;;;;;;;18.30;15.95;;;;;;;9.31;100.00;101557.59;5132249;28;20099;-75
2024/01/26 07:45:45;;;;;;;17.08;11.18;;;;;;;9.43;100.00;101559.75;5113789;28;20035;-75
2024/01/26 07:48:12;;;;;;;18.65;10.57;;;;;;;9.39;100.00;101582.50;5113696;28;20382;-75
2024/01/26 07:50:41;;;;;;;19.50;12.15;;;;;;;9.45;100.00;101585.25;5113679;28;20479;-74
2024/01/26 07:53:07;;;;;;;16.77;10.27;;;;;;;9.41;100.00;101599.97;5132007;28;20035;-75
2024/01/26 07:55:32;;;;;;;16.08;11.63;;;;;;;9.45;100.00;101601.25;5132023;28;20027;-79
2024/01/26 07:57:57;;;;;;;14.90;10.82;;;;;;;9.58;100.00;101601.41;5113966;28;20042;-79
2024/01/26 08:00:24;;;;;;;16.50;11.40;;;;;;;9.60;100.00;101610.06;5113740;28;20029;-77
2024/01/26 08:02:49;;;;;;;16.13;10.13;;;;;;;9.60;100.00;101636.78;5132124;28;20039;-77
2024/01/26 08:05:14;;;;;;;16.20;11.75;;;;;;;9.60;100.00;101611.91;5132115;28;20023;-74
2024/01/26 08:07:40;;;;;;;14.18;10.05;;;;;;;9.54;100.00;101621.50;5113651;28;20063;-77
2024/01/26 08:10:06;;;;;;;11.15;9.07;;;;;;;9.67;100.00;101614.66;5114021;28;20093;-77
2024/01/26 08:12:31;;;;;;;13.63;9.27;;;;;;;9.67;100.00;101628.81;5113438;28;20038;-75
2024/01/26 08:14:57;;;;;;;11.88;10.10;;;;;;;9.69;100.00;101628.63;5132577;27;20027;-75
2024/01/26 08:17:22;;;;;;;16.13;11.85;;;;;;;9.74;100.00;101628.91;5117223;28;20031;-77
2024/01/26 08:19:48;;;;;;;13.48;9.65;;;;;;;9.71;100.00;101623.94;5117121;28;20030;-75
2024/01/26 08:22:13;;;;;;;14.75;9.85;;;;;;;9.76;100.00;101626.84;5117035;28;20122;-76
2024/01/26 08:24:38;;;;;;;12.57;9.57;;;;;;;9.74;100.00;101627.06;5117218;28;20027;-75
2024/01/26 08:27:04;;;;;;;13.15;10.00;;;;;;;9.72;100.00;101622.91;5117001;28;20089;-75
2024/01/26 08:29:29;;;;;;;15.13;9.82;;;;;;;9.77;100.00;101612.50;5116879;28;20383;-73
2024/01/26 08:31:55;;;;;;;13.48;9.50;;;;;;;9.72;100.00;101630.94;5135487;28;20047;-75
2024/01/26 08:34:20;;;;;;;10.45;7.95;;;;;;;9.84;100.00;101622.25;5135332;28;20084;-75
2024/01/26 08:36:46;;;;;;;11.13;9.25;;;;;;;9.88;100.00;101628.03;5135314;28;20031;-77
2024/01/26 08:39:11;;;;;;;19.48;10.45;;;;;;;9.84;100.00;101635.59;5116833;28;20030;-76
2024/01/26 08:41:37;;;;;;;14.50;9.32;;;;;;;9.86;100.00;101633.56;5116760;28;20110;-76
2024/01/26 08:44:03;;;;;;;13.65;9.75;;;;;;;9.85;100.00;101623.06;5116827;28;20031;-77
2024/01/26 08:46:29;;;;;;;14.65;10.40;;;;;;;9.91;100.00;101623.13;5135549;28;20023;-76
2024/01/26 08:48:54;;;;;;;13.00;10.00;;;;;;;9.93;100.00;101636.31;5116940;28;20463;-75
2024/01/26 08:51:20;;;;;;;11.57;8.73;;;;;;;9.99;100.00;101640.03;5116647;28;20037;-75
2024/01/26 08:53:45;;;;;;;11.27;9.30;;;;;;;9.96;100.00;101635.91;5134971;28;20031;-75
2024/01/26 08:56:11;;;;;;;8.32;6.80;;;;;;;9.95;100.00;101639.59;5116546;28;20372;-75
2024/01/26 08:58:37;;;;;;;13.15;8.70;;;;;;;9.99;100.00;101627.50;5135217;28;20031;-74
2024/01/26 09:01:02;;;;;;;14.95;9.73;;;;;;;10.01;100.00;101632.66;5134938;28;20023;-74
2024/01/26 09:03:27;;;;;;;9.88;7.90;;;;;;;10.00;100.00;101655.06;5116485;28;20075;-74
2024/01/26 09:05:53;;;;;;;11.98;9.05;;;;;;;10.03;100.00;101639.47;5134918;28;20054;-76
2024/01/26 09:08:18;;;;;;;14.32;9.95;;;;;;;9.97;100.00;101634.06;5116471;28;20035;-76
2024/01/26 09:10:44;;;;;;;12.85;10.32;;;;;;;10.03;100.00;101642.16;5134999;28;20138;-75
2024/01/26 09:13:10;;;;;;;17.90;11.95;;;;;;;10.03;100.00;101686.75;5116556;28;20073;-75
2024/01/26 09:15:35;;;;;;;13.60;10.20;;;;;;;10.02;100.00;101698.44;5134710;28;20030;-75
2024/01/26 09:18:01;;;;;;;13.00;10.15;;;;;;;9.97;100.00;101696.34;5116326;27;20037;-80
2024/01/26 09:20:27;;;;;;;12.90;8.50;;;;;;;9.98;100.00;101695.31;5116429;28;20388;-79
2024/01/26 09:22:52;;;;;;;11.30;8.23;;;;;;;9.90;100.00;101716.81;5116152;28;20046;-79
2024/01/26 09:25:18;;;;;;;14.45;7.82;;;;;;;9.74;100.00;101723.19;5134536;28;20034;-80
2024/01/26 09:27:45;;;;;;;9.93;5.40;;;;;;;9.72;100.00;101716.38;5133978;27;20410;-80
2024/01/26 09:30:10;;;;;;;8.48;5.07;;;;;;;9.67;100.00;101726.81;5115917;28;20475;-80
2024/01/26 09:32:36;;;;;;;7.30;4.80;;;;;;;9.65;100.00;101715.47;5134422;28;20027;-80
2024/01/26 09:35:06;;;;;;;8.77;4.20;;;;;;;9.68;100.00;101742.63;5116025;28;20030;-79
2024/01/26 09:37:48;;;;;;;11.88;4.13;;;;;;;9.53;100.00;101733.78;5132786;28;20082;-78
2024/01/26 09:40:14;;;;;;;7.55;3.38;;;;;;;9.49;100.00;101738.69;5134227;28;20500;-77
2024/01/26 09:42:42;;;;;;;9.70;3.58;;;;;;;9.59;100.00;101741.91;5134176;28;20027;-77
2024/01/26 09:45:08;;;;;;;9.90;4.47;;;;;;;9.44;100.00;101774.97;5134164;28;20031;-78
2024/01/26 09:47:35;;;;;;;8.27;3.70;;;;;;;9.49;100.00;101783.25;5134174;28;20027;-80
2024/01/26 09:50:04;;;;;;;10.25;3.15;;;;;;;9.34;100.00;101828.63;5134126;28;20444;-79
2024/01/26 09:52:30;;;;;;;7.65;2.30;;;;;;;9.16;100.00;101839.59;5134038;28;20047;-77
2024/01/26 09:54:56;;;;;;;7.95;2.63;;;;;;;9.06;100.00;101862.22;5115648;28;20077;-79
2024/01/26 09:57:22;;;;;;;9.50;2.67;;;;;;;9.02;100.00;101890.28;5134086;28;20023;-76
2024/01/26 09:59:50;;;;;;;6.82;2.53;;;;;;;8.98;100.00;101893.28;5115417;28;20056;-78
2024/01/26 10:02:17;;;;;;;9.95;3.00;;;;;;;8.93;100.00;101908.97;5115523;28;20027;-77
2024/01/26 10:04:43;;;;;;;6.22;2.00;;;;;;;9.10;100.00;101922.22;5133926;28;20487;-78
2024/01/26 10:07:08;;;;;;;5.00;1.80;;;;;;;9.25;100.00;101923.94;5115660;28;20033;-77
2024/01/26 10:09:35;;;;;;;8.07;2.50;;;;;;;9.23;100.00;101939.28;5133933;28;20052;-77
2024/01/26 10:12:01;;;;;;;6.97;2.38;;;;;;;9.10;100.00;101943.56;5133848;28;20030;-76
2024/01/26 10:14:26;;;;;;;8.75;2.97;;;;;;;9.02;100.00;101935.63;5133752;28;20418;-75
2024/01/26 10:16:55;;;;;;;6.85;2.05;;;;;;;8.93;100.00;101929.47;5115514;28;20035;-77
2024/01/26 10:19:28;;;;;;;9.40;2.35;;;;;;;9.01;100.00;101950.78;5115420;28;20131;-76
2024/01/26 10:21:54;;;;;;;8.77;2.20;;;;;;;9.05;100.00;101948.59;5115215;28;20035;-77
2024/01/26 10:24:24;;;;;;;7.57;2.78;;;;;;;9.11;100.00;101974.56;5115334;28;20027;-76
2024/01/26 10:26:53;;;;;;;7.03;2.40;;;;;;;9.15;100.00;101976.69;5133628;28;20023;-78
2024/01/26 10:29:19;;;;;;;9.68;2.95;;;;;;;9.26;100.00;101981.66;5133799;28;20037;-76
2024/01/26 10:31:45;;;;;;;9.38;2.90;;;;;;;9.28;100.00;101982.31;5133742;28;20461;-76
2024/01/26 10:34:15;;;;;;;6.45;2.40;;;;;;;9.31;100.00;101997.13;5133532;28;20031;-75
2024/01/26 10:36:48;;;;;;;8.10;2.33;;;;;;;9.16;100.00;101993.53;5133583;28;20414;-75
2024/01/26 10:39:22;;;;;;;9.77;3.20;;;;;;;9.19;100.00;101999.34;5097216;28;20126;-76
2024/01/26 10:41:50;;;;;;;10.15;2.58;;;;;;;9.38;100.00;102005.25;5133419;28;20037;-75
2024/01/26 10:44:16;;;;;;;10.25;2.53;;;;;;;9.49;100.00;101994.97;5114989;28;20547;-75
2024/01/26 10:46:42;;;;;;;11.65;2.83;;;;;;;9.43;100.00;102010.88;5115049;28;20446;-76
2024/01/26 10:49:09;;;;;;;11.98;3.28;;;;;;;9.35;100.00;102034.97;5133259;28;20023;-76
2024/01/26 10:51:37;;;;;;;8.70;2.70;;;;;;;9.25;100.00;102022.69;5133300;28;20396;-76
2024/01/26 10:54:09;;;;;;;12.30;3.45;;;;;;;9.49;100.00;102035.03;5114784;28;20066;-76
2024/01/26 10:56:34;;;;;;;13.20;3.77;;;;;;;10.16;100.00;102064.56;5114972;28;20027;-74
2024/01/26 10:59:00;;;;;;;8.38;3.20;;;;;;;11.00;100.00;102045.63;5133144;28;20031;-75
2024/01/26 11:01:26;;;;;;;12.63;3.20;;;;;;;11.20;100.00;102068.09;5114694;28;20025;-75
2024/01/26 11:03:56;;;;;;;7.78;2.55;;;;;;;11.22;100.00;102084.78;5133125;28;20089;-74
2024/01/26 11:06:21;;;;;;;8.65;2.22;;;;;;;11.17;100.00;102079.19;5114717;28;20458;-74
2024/01/26 11:08:46;;;;;;;9.45;3.92;;;;;;;11.40;100.00;102087.91;5114740;28;20055;-76
2024/01/26 11:11:14;;;;;;;9.10;2.50;;;;;;;11.54;100.00;102090.72;5114606;28;20038;-77